createdAt,value
2023-03-15T00:00:50.306Z,476.00
2023-03-15T00:04:50.328Z,470.00
2023-03-15T00:08:50.405Z,474.00
2023-03-15T00:12:50.388Z,477.00
2023-03-15T00:16:50.357Z,476.00
2023-03-15T00:20:50.393Z,473.00
2023-03-15T00:24:50.410Z,477.00
2023-03-15T00:28:50.432Z,480.00
2023-03-15T00:32:50.404Z,470.00
2023-03-15T00:36:50.393Z,466.00
2023-03-15T00:40:50.359Z,468.00
2023-03-15T00:44:50.324Z,466.00
2023-03-15T00:48:50.424Z,470.00
2023-03-15T00:52:50.434Z,471.00
2023-03-15T00:56:50.436Z,475.00
2023-03-15T01:00:50.326Z,475.00
2023-03-15T01:04:50.359Z,466.00
2023-03-15T01:08:50.465Z,469.00
2023-03-15T01:12:50.368Z,471.00
2023-03-15T01:16:50.377Z,471.00
2023-03-15T01:20:50.314Z,471.00
2023-03-15T01:24:50.335Z,473.00
2023-03-15T01:28:50.274Z,473.00
2023-03-15T01:32:50.352Z,469.00
2023-03-15T01:36:50.280Z,475.00
2023-03-15T01:40:50.305Z,481.00
2023-03-15T01:44:50.253Z,481.00
2023-03-15T01:48:50.199Z,480.00
2023-03-15T01:52:50.318Z,474.00
2023-03-15T01:56:50.207Z,475.00
2023-03-15T02:00:50.256Z,472.00
2023-03-15T02:04:50.247Z,475.00
2023-03-15T02:08:50.223Z,471.00
2023-03-15T02:12:50.194Z,470.00
2023-03-15T02:16:50.295Z,466.00
2023-03-15T02:20:50.190Z,469.00
2023-03-15T02:24:50.198Z,467.00
2023-03-15T02:28:50.233Z,469.00
2023-03-15T02:32:50.273Z,468.00
2023-03-15T02:36:50.219Z,469.00
2023-03-15T02:40:50.224Z,465.00
2023-03-15T02:44:50.235Z,463.00
2023-03-15T02:48:50.363Z,465.00
2023-03-15T02:52:50.300Z,464.00
2023-03-15T02:56:50.240Z,473.00
2023-03-15T03:00:50.343Z,474.00
2023-03-15T03:04:51.244Z,469.00
2023-03-15T03:08:50.325Z,471.00
2023-03-15T03:12:50.352Z,474.00
2023-03-15T03:16:50.386Z,471.00
2023-03-15T03:20:50.342Z,469.00
2023-03-15T03:24:50.382Z,472.00
2023-03-15T03:28:50.465Z,472.00
2023-03-15T03:32:50.529Z,468.00
2023-03-15T03:36:50.509Z,465.00
2023-03-15T03:40:50.535Z,465.00
2023-03-15T03:44:51.227Z,467.00
2023-03-15T03:48:53.708Z,465.00
2023-03-15T03:52:50.568Z,472.00
2023-03-15T03:56:50.525Z,471.00
2023-03-15T04:00:50.759Z,470.00
2023-03-15T04:04:50.593Z,461.00
2023-03-15T04:08:50.430Z,458.00
2023-03-15T04:12:50.849Z,460.00
2023-03-15T04:16:50.397Z,463.00
2023-03-15T04:20:50.351Z,468.00
2023-03-15T04:24:50.263Z,472.00
2023-03-15T04:28:50.214Z,472.00
2023-03-15T04:32:50.291Z,468.00
2023-03-15T04:36:50.305Z,470.00
2023-03-15T04:40:50.182Z,470.00
2023-03-15T04:44:50.098Z,471.00
2023-03-15T04:48:50.061Z,472.00
2023-03-15T04:52:49.981Z,468.00
2023-03-15T04:56:49.966Z,463.00
2023-03-15T05:00:49.998Z,461.00
2023-03-15T05:04:49.883Z,465.00
2023-03-15T05:08:49.842Z,455.00
2023-03-15T05:12:49.798Z,459.00
2023-03-15T05:16:49.826Z,465.00
2023-03-15T05:20:49.755Z,464.00
2023-03-15T05:24:49.693Z,470.00
2023-03-15T05:28:49.663Z,465.00
2023-03-15T05:32:49.699Z,463.00
2023-03-15T05:36:49.766Z,460.00
2023-03-15T05:40:49.819Z,469.00
2023-03-15T05:44:49.975Z,463.00
2023-03-15T05:48:50.119Z,460.00
2023-03-15T05:52:50.141Z,461.00
2023-03-15T05:56:50.209Z,461.00
2023-03-15T06:00:50.304Z,459.00
2023-03-15T06:04:50.439Z,460.00
2023-03-15T06:08:50.501Z,461.00
2023-03-15T06:12:50.618Z,459.00
2023-03-15T06:16:50.682Z,460.00
2023-03-15T06:20:50.756Z,456.00
2023-03-15T06:24:50.806Z,453.00
2023-03-15T06:28:50.910Z,454.00
2023-03-15T06:32:50.966Z,470.00
2023-03-15T06:36:51.052Z,652.00
2023-03-15T06:40:51.092Z,650.00
2023-03-15T06:44:51.381Z,697.00
2023-03-15T06:48:51.323Z,626.00
2023-03-15T06:52:51.486Z,606.00
2023-03-15T06:56:51.633Z,654.00
2023-03-15T07:00:51.801Z,679.00
2023-03-15T07:04:51.905Z,705.00
2023-03-15T07:08:52.284Z,745.00
2023-03-15T07:12:51.947Z,772.00
2023-03-15T07:16:51.982Z,786.00
2023-03-15T07:20:51.971Z,809.00
2023-03-15T07:24:52.002Z,828.00
2023-03-15T07:28:52.101Z,824.00
2023-03-15T07:32:52.303Z,829.00
2023-03-15T07:36:52.217Z,827.00
2023-03-15T07:40:52.358Z,719.00
2023-03-15T07:44:52.562Z,674.00
2023-03-15T07:48:52.735Z,678.00
2023-03-15T07:52:52.683Z,657.00
2023-03-15T07:56:52.651Z,652.00
2023-03-15T08:00:52.680Z,655.00
2023-03-15T08:04:52.620Z,663.00
2023-03-15T08:08:52.545Z,657.00
2023-03-15T08:12:52.511Z,647.00
2023-03-15T08:16:52.478Z,698.00
2023-03-15T08:20:52.461Z,733.00
2023-03-15T08:24:52.393Z,764.00
2023-03-15T08:28:53.308Z,790.00
2023-03-15T08:32:52.455Z,800.00
2023-03-15T08:36:52.332Z,707.00
2023-03-15T08:40:52.232Z,686.00
2023-03-15T08:44:52.234Z,704.00
2023-03-15T08:48:52.295Z,717.00
2023-03-15T08:52:52.368Z,717.00
2023-03-15T08:56:52.317Z,715.00
2023-03-15T09:00:52.930Z,711.00
2023-03-15T09:04:53.534Z,716.00
2023-03-15T09:08:52.469Z,719.00
2023-03-15T09:12:52.505Z,724.00
2023-03-15T09:16:52.718Z,725.00
2023-03-15T09:20:52.572Z,738.00
2023-03-15T09:24:52.814Z,738.00
2023-03-15T09:28:53.027Z,738.00
2023-03-15T09:32:53.039Z,664.00
2023-03-15T09:36:53.164Z,556.00
2023-03-15T09:40:53.131Z,530.00
2023-03-15T09:44:53.159Z,562.00
2023-03-15T09:48:53.178Z,573.00
2023-03-15T09:52:53.277Z,603.00
2023-03-15T09:56:53.537Z,629.00
2023-03-15T10:00:53.712Z,636.00
2023-03-15T10:04:53.881Z,642.00
2023-03-15T10:08:53.862Z,659.00
2023-03-15T10:12:53.948Z,665.00
2023-03-15T10:16:53.962Z,672.00
2023-03-15T10:20:53.908Z,676.00
2023-03-15T10:24:53.920Z,678.00
2023-03-15T10:28:54.004Z,688.00
2023-03-15T10:32:54.010Z,746.00
2023-03-15T10:36:56.045Z,644.00
2023-03-15T10:40:54.333Z,664.00
2023-03-15T10:44:54.348Z,667.00
2023-03-15T10:48:54.490Z,653.00
2023-03-15T10:52:54.459Z,680.00
2023-03-15T10:56:54.462Z,673.00
2023-03-15T11:00:54.350Z,694.00
2023-03-15T11:04:54.347Z,724.00
2023-03-15T11:08:54.401Z,724.00
2023-03-15T11:12:54.246Z,742.00
2023-03-15T11:16:54.158Z,786.00
2023-03-15T11:20:54.186Z,815.00
2023-03-15T11:24:54.130Z,842.00
2023-03-15T11:28:54.041Z,788.00
2023-03-15T11:32:54.015Z,732.00
2023-03-15T11:37:07.192Z,769.00
2023-03-15T11:40:54.939Z,840.00
2023-03-15T11:44:53.934Z,881.00
2023-03-15T11:48:53.865Z,949.00
2023-03-15T11:52:53.991Z,960.00
2023-03-15T11:56:53.916Z,979.00
2023-03-15T12:00:53.976Z,979.00
2023-03-15T12:04:53.861Z,1012.00
2023-03-15T12:08:53.794Z,1001.00
2023-03-15T12:12:53.819Z,1056.00
2023-03-15T12:16:53.795Z,1056.00
2023-03-15T12:20:53.734Z,1020.00
2023-03-15T12:24:53.646Z,941.00
2023-03-15T12:28:53.644Z,872.00
2023-03-15T12:32:53.587Z,831.00
2023-03-15T12:36:53.566Z,792.00
2023-03-15T12:40:53.482Z,753.00
2023-03-15T12:44:53.444Z,717.00
2023-03-15T12:48:53.410Z,676.00
2023-03-15T12:52:53.435Z,652.00
2023-03-15T12:56:53.348Z,643.00
2023-03-15T13:00:53.329Z,641.00
2023-03-15T13:04:53.305Z,640.00
2023-03-15T13:08:53.303Z,638.00
2023-03-15T13:12:53.235Z,630.00
2023-03-15T13:16:53.149Z,625.00
2023-03-15T13:20:53.205Z,622.00
2023-03-15T13:24:53.142Z,619.00
2023-03-15T13:28:53.089Z,626.00
2023-03-15T13:32:53.349Z,621.00
2023-03-15T13:36:53.548Z,618.00
2023-03-15T13:40:53.742Z,618.00
2023-03-15T13:44:53.868Z,616.00
2023-03-15T13:48:54.061Z,674.00
2023-03-15T13:52:54.187Z,692.00
2023-03-15T13:56:54.318Z,688.00
2023-03-15T14:00:54.511Z,688.00
2023-03-15T14:04:54.725Z,677.00
2023-03-15T14:08:54.944Z,680.00
2023-03-15T14:12:55.015Z,685.00
2023-03-15T14:17:04.761Z,699.00
2023-03-15T14:20:56.187Z,703.00
2023-03-15T14:24:55.191Z,692.00
2023-03-15T14:28:55.379Z,688.00
2023-03-15T14:32:55.617Z,685.00
2023-03-15T14:36:55.749Z,685.00
2023-03-15T14:40:55.922Z,675.00
2023-03-15T14:44:56.067Z,674.00
2023-03-15T14:48:56.249Z,722.00
2023-03-15T14:52:56.463Z,746.00
2023-03-15T14:56:56.625Z,726.00
2023-03-15T15:00:56.862Z,683.00
2023-03-15T15:04:57.056Z,660.00
2023-03-15T15:08:57.246Z,641.00
2023-03-15T15:13:05.875Z,615.00
2023-03-15T15:16:58.285Z,595.00
2023-03-15T15:20:57.176Z,582.00
2023-03-15T15:24:57.300Z,576.00
2023-03-15T15:28:57.354Z,562.00
2023-03-15T15:32:57.549Z,557.00
2023-03-15T15:36:57.181Z,549.00
2023-03-15T15:40:57.140Z,549.00
2023-03-15T15:44:57.543Z,552.00
2023-03-15T15:48:57.141Z,552.00
2023-03-15T15:52:57.030Z,559.00
2023-03-15T15:56:57.001Z,556.00
2023-03-15T16:00:56.966Z,558.00
2023-03-15T16:04:57.209Z,551.00
2023-03-15T16:08:57.140Z,558.00
2023-03-15T16:12:57.111Z,553.00
2023-03-15T16:16:57.039Z,548.00
2023-03-15T16:20:57.073Z,539.00
2023-03-15T16:24:56.962Z,545.00
2023-03-15T16:28:56.965Z,545.00
2023-03-15T16:32:56.886Z,550.00
2023-03-15T16:36:56.808Z,554.00
2023-03-15T16:40:56.764Z,548.00
2023-03-15T16:44:56.828Z,546.00
2023-03-15T16:48:56.848Z,550.00
2023-03-15T16:52:56.817Z,543.00
2023-03-15T16:56:56.746Z,536.00
2023-03-15T17:00:56.761Z,543.00
2023-03-15T17:04:56.688Z,542.00
2023-03-15T17:08:56.648Z,544.00
2023-03-15T17:12:56.576Z,541.00
2023-03-15T17:16:56.579Z,534.00
2023-03-15T17:20:56.542Z,538.00
2023-03-15T17:24:56.543Z,541.00
2023-03-15T17:28:56.475Z,544.00
2023-03-15T17:32:56.572Z,544.00
2023-03-15T17:36:56.437Z,539.00
2023-03-15T17:40:56.469Z,536.00
2023-03-15T17:44:56.310Z,539.00
2023-03-15T17:48:56.384Z,537.00
2023-03-15T17:52:56.315Z,533.00
2023-03-15T17:56:56.272Z,525.00
2023-03-15T18:00:56.239Z,520.00
2023-03-15T18:04:56.229Z,523.00
2023-03-15T18:08:56.155Z,518.00
2023-03-15T18:12:56.178Z,514.00
2023-03-15T18:16:56.374Z,518.00
2023-03-15T18:20:56.389Z,518.00
2023-03-15T18:24:56.524Z,522.00
2023-03-15T18:28:56.573Z,519.00
2023-03-15T18:37:12.570Z,517.00
2023-03-15T18:41:12.524Z,520.00
2023-03-15T18:45:12.532Z,528.00
2023-03-15T18:49:12.438Z,531.00
2023-03-15T18:53:12.490Z,526.00
2023-03-15T18:57:12.391Z,524.00
2023-03-15T19:01:12.396Z,510.00
2023-03-15T19:05:12.350Z,509.00
2023-03-15T19:09:12.310Z,504.00
2023-03-15T19:13:12.259Z,501.00
2023-03-15T19:17:12.278Z,497.00
2023-03-15T19:21:12.158Z,495.00
2023-03-15T19:25:12.144Z,490.00
2023-03-15T19:29:12.071Z,490.00
2023-03-15T19:33:12.117Z,490.00
2023-03-15T19:37:12.016Z,493.00
2023-03-15T19:41:12.930Z,497.00
2023-03-15T19:45:11.963Z,499.00
2023-03-15T19:49:11.883Z,496.00
2023-03-15T19:53:11.883Z,494.00
2023-03-15T19:57:11.866Z,490.00
2023-03-15T20:01:11.848Z,482.00
2023-03-15T20:05:11.792Z,484.00
2023-03-15T20:09:11.717Z,488.00
2023-03-15T20:13:11.696Z,487.00
2023-03-15T20:17:11.657Z,491.00
2023-03-15T20:21:11.685Z,495.00
2023-03-15T20:25:11.599Z,494.00
2023-03-15T20:29:11.545Z,493.00
2023-03-15T20:33:11.539Z,495.00
2023-03-15T20:37:11.479Z,490.00
2023-03-15T20:41:11.437Z,498.00
2023-03-15T20:45:11.404Z,494.00
2023-03-15T20:49:11.337Z,492.00
2023-03-15T20:53:11.314Z,498.00
2023-03-15T20:57:11.266Z,498.00
2023-03-15T21:01:11.284Z,495.00
2023-03-15T21:05:11.218Z,495.00
2023-03-15T21:09:11.130Z,496.00
2023-03-15T21:13:11.184Z,492.00
2023-03-15T21:17:11.085Z,497.00
2023-03-15T21:21:11.007Z,492.00
2023-03-15T21:25:11.051Z,488.00
2023-03-15T21:29:10.919Z,494.00
2023-03-15T21:33:11.261Z,487.00
2023-03-15T21:37:10.826Z,489.00
2023-03-15T21:41:10.823Z,491.00
2023-03-15T21:45:10.807Z,489.00
2023-03-15T21:49:10.772Z,490.00
2023-03-15T21:53:10.703Z,492.00
2023-03-15T21:57:10.685Z,492.00
2023-03-15T22:01:10.729Z,490.00
2023-03-15T22:05:10.651Z,487.00
2023-03-15T22:09:10.605Z,487.00
2023-03-15T22:13:10.629Z,485.00
2023-03-15T22:17:10.735Z,486.00
2023-03-15T22:21:10.655Z,484.00
2023-03-15T22:25:10.650Z,484.00
2023-03-15T22:29:10.680Z,485.00
2023-03-15T22:33:10.934Z,485.00
2023-03-15T22:37:10.657Z,482.00
2023-03-15T22:41:10.677Z,484.00
2023-03-15T22:45:10.714Z,490.00
2023-03-15T22:49:10.726Z,487.00
2023-03-15T22:53:10.753Z,484.00
2023-03-15T22:57:10.787Z,484.00
2023-03-15T23:01:10.839Z,488.00
2023-03-15T23:05:10.852Z,488.00
2023-03-15T23:09:10.877Z,485.00
2023-03-15T23:13:10.878Z,481.00
2023-03-15T23:17:10.926Z,484.00
2023-03-15T23:21:10.992Z,485.00
2023-03-15T23:25:11.043Z,488.00
2023-03-15T23:29:11.110Z,487.00
2023-03-15T23:33:11.092Z,482.00
2023-03-15T23:37:11.169Z,487.00
2023-03-15T23:41:11.253Z,491.00
2023-03-15T23:45:11.274Z,492.00
2023-03-15T23:49:11.312Z,492.00
2023-03-15T23:53:11.439Z,487.00
2023-03-15T23:57:11.374Z,484.00
